sensor_id;sensor_type;location;lat;lon;timestamp;P1;durP1;ratioP1;P2;durP2;ratioP2
9270;SDS011;4673;53.458;9.940;2024-01-16T00:01:41;5.50;;;5.50;;
9270;SDS011;4673;53.458;9.940;2024-01-16T00:04:07;6.23;;;6.23;;
9270;SDS011;4673;53.458;9.940;2024-01-16T00:06:33;6.20;;;6.20;;
9270;SDS011;4673;53.458;9.940;2024-01-16T00:09:03;5.97;;;5.97;;
9270;SDS011;4673;53.458;9.940;2024-01-16T00:11:30;4.43;;;4.43;;
9270;SDS011;4673;53.458;9.940;2024-01-16T00:13:55;4.13;;;4.13;;
9270;SDS011;4673;53.458;9.940;2024-01-16T00:16:21;4.30;;;4.30;;
9270;SDS011;4673;53.458;9.940;2024-01-16T00:18:47;4.03;;;4.03;;
9270;SDS011;4673;53.458;9.940;2024-01-16T00:21:12;4.77;;;4.77;;
9270;SDS011;4673;53.458;9.940;2024-01-16T00:23:38;4.27;;;4.27;;
9270;SDS011;4673;53.458;9.940;2024-01-16T00:26:04;4.10;;;4.10;;
9270;SDS011;4673;53.458;9.940;2024-01-16T00:28:31;5.27;;;5.27;;
9270;SDS011;4673;53.458;9.940;2024-01-16T00:30:57;5.80;;;5.80;;
9270;SDS011;4673;53.458;9.940;2024-01-16T00:33:22;5.20;;;5.20;;
9270;SDS011;4673;53.458;9.940;2024-01-16T00:35:48;6.30;;;6.30;;
9270;SDS011;4673;53.458;9.940;2024-01-16T00:38:13;6.00;;;6.00;;
9270;SDS011;4673;53.458;9.940;2024-01-16T00:40:39;6.63;;;6.63;;
9270;SDS011;4673;53.458;9.940;2024-01-16T00:43:05;6.67;;;6.67;;
9270;SDS011;4673;53.458;9.940;2024-01-16T00:45:30;6.80;;;6.80;;
9270;SDS011;4673;53.458;9.940;2024-01-16T00:47:56;7.97;;;7.97;;
9270;SDS011;4673;53.458;9.940;2024-01-16T00:50:21;7.93;;;7.93;;
9270;SDS011;4673;53.458;9.940;2024-01-16T00:52:47;8.63;;;8.63;;
9270;SDS011;4673;53.458;9.940;2024-01-16T00:55:13;8.33;;;8.33;;
9270;SDS011;4673;53.458;9.940;2024-01-16T00:57:38;8.00;;;8.00;;
9270;SDS011;4673;53.458;9.940;2024-01-16T01:00:04;8.37;;;8.37;;
9270;SDS011;4673;53.458;9.940;2024-01-16T01:02:30;7.57;;;7.57;;
9270;SDS011;4673;53.458;9.940;2024-01-16T01:04:56;8.53;;;8.53;;
9270;SDS011;4673;53.458;9.940;2024-01-16T01:07:22;8.70;;;8.70;;
9270;SDS011;4673;53.458;9.940;2024-01-16T01:09:47;9.10;;;9.10;;
9270;SDS011;4673;53.458;9.940;2024-01-16T01:12:13;8.53;;;8.53;;
9270;SDS011;4673;53.458;9.940;2024-01-16T01:14:39;7.07;;;7.07;;
9270;SDS011;4673;53.458;9.940;2024-01-16T01:17:04;8.20;;;8.20;;
9270;SDS011;4673;53.458;9.940;2024-01-16T01:19:30;8.27;;;8.27;;
9270;SDS011;4673;53.458;9.940;2024-01-16T01:21:56;8.27;;;8.27;;
9270;SDS011;4673;53.458;9.940;2024-01-16T01:24:22;7.80;;;7.80;;
9270;SDS011;4673;53.458;9.940;2024-01-16T01:26:48;6.50;;;6.50;;
9270;SDS011;4673;53.458;9.940;2024-01-16T01:29:13;6.47;;;6.47;;
9270;SDS011;4673;53.458;9.940;2024-01-16T01:31:39;6.53;;;6.53;;
9270;SDS011;4673;53.458;9.940;2024-01-16T01:34:04;6.63;;;6.63;;
9270;SDS011;4673;53.458;9.940;2024-01-16T01:36:30;6.37;;;6.37;;
9270;SDS011;4673;53.458;9.940;2024-01-16T01:38:56;6.33;;;6.33;;
9270;SDS011;4673;53.458;9.940;2024-01-16T01:41:21;7.03;;;7.03;;
9270;SDS011;4673;53.458;9.940;2024-01-16T01:43:47;7.20;;;7.20;;
9270;SDS011;4673;53.458;9.940;2024-01-16T01:46:16;6.00;;;6.00;;
9270;SDS011;4673;53.458;9.940;2024-01-16T01:48:44;7.10;;;7.10;;
9270;SDS011;4673;53.458;9.940;2024-01-16T01:51:12;6.20;;;6.20;;
9270;SDS011;4673;53.458;9.940;2024-01-16T01:53:39;7.43;;;7.43;;
9270;SDS011;4673;53.458;9.940;2024-01-16T01:56:08;6.47;;;6.47;;
9270;SDS011;4673;53.458;9.940;2024-01-16T01:58:37;5.87;;;5.87;;
9270;SDS011;4673;53.458;9.940;2024-01-16T02:01:03;5.53;;;5.53;;
9270;SDS011;4673;53.458;9.940;2024-01-16T02:03:32;6.40;;;6.40;;
9270;SDS011;4673;53.458;9.940;2024-01-16T02:06:05;5.80;;;5.80;;
9270;SDS011;4673;53.458;9.940;2024-01-16T02:08:31;7.17;;;7.17;;
9270;SDS011;4673;53.458;9.940;2024-01-16T02:10:57;5.80;;;5.80;;
9270;SDS011;4673;53.458;9.940;2024-01-16T02:13:23;6.17;;;6.17;;
9270;SDS011;4673;53.458;9.940;2024-01-16T02:15:49;6.33;;;6.33;;
9270;SDS011;4673;53.458;9.940;2024-01-16T02:18:15;6.03;;;6.03;;
9270;SDS011;4673;53.458;9.940;2024-01-16T02:20:42;6.40;;;6.40;;
9270;SDS011;4673;53.458;9.940;2024-01-16T02:23:08;6.80;;;6.80;;
9270;SDS011;4673;53.458;9.940;2024-01-16T02:25:37;6.27;;;6.27;;
9270;SDS011;4673;53.458;9.940;2024-01-16T02:28:03;6.33;;;6.33;;
9270;SDS011;4673;53.458;9.940;2024-01-16T02:30:29;7.23;;;7.23;;
9270;SDS011;4673;53.458;9.940;2024-01-16T02:32:55;7.60;;;7.60;;
9270;SDS011;4673;53.458;9.940;2024-01-16T02:35:21;6.93;;;6.93;;
9270;SDS011;4673;53.458;9.940;2024-01-16T02:37:46;5.90;;;5.90;;
9270;SDS011;4673;53.458;9.940;2024-01-16T02:40:12;7.27;;;7.27;;
9270;SDS011;4673;53.458;9.940;2024-01-16T02:42:38;6.37;;;6.37;;
9270;SDS011;4673;53.458;9.940;2024-01-16T02:45:04;6.33;;;6.33;;
9270;SDS011;4673;53.458;9.940;2024-01-16T02:47:30;6.03;;;6.03;;
9270;SDS011;4673;53.458;9.940;2024-01-16T02:49:56;5.97;;;5.97;;
9270;SDS011;4673;53.458;9.940;2024-01-16T02:52:22;5.57;;;5.57;;
9270;SDS011;4673;53.458;9.940;2024-01-16T02:54:48;5.90;;;5.90;;
9270;SDS011;4673;53.458;9.940;2024-01-16T02:57:14;7.07;;;7.07;;
9270;SDS011;4673;53.458;9.940;2024-01-16T02:59:39;6.53;;;6.53;;
9270;SDS011;4673;53.458;9.940;2024-01-16T03:02:08;6.03;;;6.03;;
9270;SDS011;4673;53.458;9.940;2024-01-16T03:04:34;6.23;;;6.23;;
9270;SDS011;4673;53.458;9.940;2024-01-16T03:07:00;6.17;;;6.17;;
9270;SDS011;4673;53.458;9.940;2024-01-16T03:09:26;6.00;;;6.00;;
9270;SDS011;4673;53.458;9.940;2024-01-16T03:11:51;6.70;;;6.70;;
9270;SDS011;4673;53.458;9.940;2024-01-16T03:14:17;6.30;;;6.30;;
9270;SDS011;4673;53.458;9.940;2024-01-16T03:16:43;5.53;;;5.53;;
9270;SDS011;4673;53.458;9.940;2024-01-16T03:19:09;5.67;;;5.67;;
9270;SDS011;4673;53.458;9.940;2024-01-16T03:21:37;5.67;;;5.67;;
9270;SDS011;4673;53.458;9.940;2024-01-16T03:24:03;5.83;;;5.83;;
9270;SDS011;4673;53.458;9.940;2024-01-16T03:26:30;5.83;;;5.83;;
9270;SDS011;4673;53.458;9.940;2024-01-16T03:28:57;5.90;;;5.90;;
9270;SDS011;4673;53.458;9.940;2024-01-16T03:31:23;6.47;;;6.47;;
9270;SDS011;4673;53.458;9.940;2024-01-16T03:33:48;6.30;;;6.30;;
9270;SDS011;4673;53.458;9.940;2024-01-16T03:36:14;5.73;;;5.73;;
9270;SDS011;4673;53.458;9.940;2024-01-16T03:38:42;6.67;;;6.67;;
9270;SDS011;4673;53.458;9.940;2024-01-16T03:41:08;6.10;;;6.10;;
9270;SDS011;4673;53.458;9.940;2024-01-16T03:43:35;5.93;;;5.93;;
9270;SDS011;4673;53.458;9.940;2024-01-16T03:46:01;5.87;;;5.87;;
9270;SDS011;4673;53.458;9.940;2024-01-16T03:48:26;5.63;;;5.63;;
9270;SDS011;4673;53.458;9.940;2024-01-16T03:50:52;6.17;;;6.17;;
9270;SDS011;4673;53.458;9.940;2024-01-16T03:53:19;5.23;;;5.23;;
9270;SDS011;4673;53.458;9.940;2024-01-16T03:55:46;4.93;;;4.93;;
9270;SDS011;4673;53.458;9.940;2024-01-16T03:58:12;5.27;;;5.27;;
9270;SDS011;4673;53.458;9.940;2024-01-16T04:00:38;4.80;;;4.80;;
9270;SDS011;4673;53.458;9.940;2024-01-16T04:03:03;4.40;;;4.40;;
9270;SDS011;4673;53.458;9.940;2024-01-16T04:05:29;4.63;;;4.63;;
9270;SDS011;4673;53.458;9.940;2024-01-16T04:07:56;4.00;;;4.00;;
9270;SDS011;4673;53.458;9.940;2024-01-16T04:10:22;4.27;;;4.27;;
9270;SDS011;4673;53.458;9.940;2024-01-16T04:12:47;3.90;;;3.90;;
9270;SDS011;4673;53.458;9.940;2024-01-16T04:15:13;3.97;;;3.97;;
9270;SDS011;4673;53.458;9.940;2024-01-16T04:17:39;3.27;;;3.27;;
9270;SDS011;4673;53.458;9.940;2024-01-16T04:20:05;3.23;;;3.23;;
9270;SDS011;4673;53.458;9.940;2024-01-16T04:22:32;3.47;;;3.47;;
9270;SDS011;4673;53.458;9.940;2024-01-16T04:24:58;3.93;;;3.93;;
9270;SDS011;4673;53.458;9.940;2024-01-16T04:27:23;3.60;;;3.60;;
9270;SDS011;4673;53.458;9.940;2024-01-16T04:29:50;3.43;;;3.43;;
9270;SDS011;4673;53.458;9.940;2024-01-16T04:32:16;4.07;;;4.07;;
9270;SDS011;4673;53.458;9.940;2024-01-16T04:34:42;3.33;;;3.33;;
9270;SDS011;4673;53.458;9.940;2024-01-16T04:37:07;3.83;;;3.83;;
9270;SDS011;4673;53.458;9.940;2024-01-16T04:39:33;3.47;;;3.47;;
9270;SDS011;4673;53.458;9.940;2024-01-16T04:41:58;3.60;;;3.60;;
9270;SDS011;4673;53.458;9.940;2024-01-16T04:44:24;3.43;;;3.43;;
9270;SDS011;4673;53.458;9.940;2024-01-16T04:46:50;2.77;;;2.77;;
9270;SDS011;4673;53.458;9.940;2024-01-16T04:49:15;2.90;;;2.90;;
9270;SDS011;4673;53.458;9.940;2024-01-16T04:51:41;3.13;;;3.13;;
9270;SDS011;4673;53.458;9.940;2024-01-16T04:54:07;2.83;;;2.83;;
9270;SDS011;4673;53.458;9.940;2024-01-16T04:56:32;3.37;;;3.37;;
9270;SDS011;4673;53.458;9.940;2024-01-16T04:58:58;2.63;;;2.63;;
9270;SDS011;4673;53.458;9.940;2024-01-16T05:01:24;2.50;;;2.50;;
9270;SDS011;4673;53.458;9.940;2024-01-16T05:03:50;2.47;;;2.47;;
9270;SDS011;4673;53.458;9.940;2024-01-16T05:06:16;2.00;;;2.00;;
9270;SDS011;4673;53.458;9.940;2024-01-16T05:08:42;2.57;;;2.57;;
9270;SDS011;4673;53.458;9.940;2024-01-16T05:11:08;2.20;;;2.20;;
9270;SDS011;4673;53.458;9.940;2024-01-16T05:13:34;2.30;;;2.30;;
9270;SDS011;4673;53.458;9.940;2024-01-16T05:15:59;2.50;;;2.50;;
9270;SDS011;4673;53.458;9.940;2024-01-16T05:18:25;2.00;;;2.00;;
9270;SDS011;4673;53.458;9.940;2024-01-16T05:20:50;2.20;;;2.20;;
9270;SDS011;4673;53.458;9.940;2024-01-16T05:23:16;1.90;;;1.90;;
9270;SDS011;4673;53.458;9.940;2024-01-16T05:25:42;1.93;;;1.93;;
9270;SDS011;4673;53.458;9.940;2024-01-16T05:28:08;2.17;;;2.17;;
9270;SDS011;4673;53.458;9.940;2024-01-16T05:30:34;1.67;;;1.67;;
9270;SDS011;4673;53.458;9.940;2024-01-16T05:32:59;1.87;;;1.87;;
9270;SDS011;4673;53.458;9.940;2024-01-16T05:35:28;1.67;;;1.67;;
9270;SDS011;4673;53.458;9.940;2024-01-16T05:37:54;2.00;;;2.00;;
9270;SDS011;4673;53.458;9.940;2024-01-16T05:40:20;1.40;;;1.40;;
9270;SDS011;4673;53.458;9.940;2024-01-16T05:42:47;1.83;;;1.83;;
9270;SDS011;4673;53.458;9.940;2024-01-16T05:45:14;1.90;;;1.90;;
9270;SDS011;4673;53.458;9.940;2024-01-16T05:47:40;1.87;;;1.87;;
9270;SDS011;4673;53.458;9.940;2024-01-16T05:50:06;1.77;;;1.77;;
9270;SDS011;4673;53.458;9.940;2024-01-16T05:52:32;1.63;;;1.63;;
9270;SDS011;4673;53.458;9.940;2024-01-16T05:54:59;2.40;;;2.40;;
9270;SDS011;4673;53.458;9.940;2024-01-16T05:57:25;2.00;;;2.00;;
9270;SDS011;4673;53.458;9.940;2024-01-16T05:59:51;1.97;;;1.97;;
9270;SDS011;4673;53.458;9.940;2024-01-16T06:02:17;2.33;;;2.33;;
9270;SDS011;4673;53.458;9.940;2024-01-16T06:04:42;2.07;;;2.07;;
9270;SDS011;4673;53.458;9.940;2024-01-16T06:07:08;2.60;;;2.60;;
9270;SDS011;4673;53.458;9.940;2024-01-16T06:09:43;2.17;;;2.17;;
9270;SDS011;4673;53.458;9.940;2024-01-16T06:12:08;2.60;;;2.60;;
9270;SDS011;4673;53.458;9.940;2024-01-16T06:14:34;2.27;;;2.27;;
9270;SDS011;4673;53.458;9.940;2024-01-16T06:17:00;2.77;;;2.77;;
9270;SDS011;4673;53.458;9.940;2024-01-16T06:19:26;2.30;;;2.30;;
9270;SDS011;4673;53.458;9.940;2024-01-16T06:21:52;2.47;;;2.47;;
9270;SDS011;4673;53.458;9.940;2024-01-16T06:24:18;2.60;;;2.60;;
9270;SDS011;4673;53.458;9.940;2024-01-16T06:26:43;2.80;;;2.80;;
9270;SDS011;4673;53.458;9.940;2024-01-16T06:29:09;2.60;;;2.60;;
9270;SDS011;4673;53.458;9.940;2024-01-16T06:31:34;3.37;;;3.37;;
9270;SDS011;4673;53.458;9.940;2024-01-16T06:34:00;3.57;;;3.57;;
9270;SDS011;4673;53.458;9.940;2024-01-16T06:36:26;4.20;;;4.20;;
9270;SDS011;4673;53.458;9.940;2024-01-16T06:38:51;3.47;;;3.47;;
9270;SDS011;4673;53.458;9.940;2024-01-16T06:41:17;3.70;;;3.70;;
9270;SDS011;4673;53.458;9.940;2024-01-16T06:43:43;3.00;;;3.00;;
9270;SDS011;4673;53.458;9.940;2024-01-16T06:46:09;2.87;;;2.87;;
9270;SDS011;4673;53.458;9.940;2024-01-16T06:48:35;3.50;;;3.50;;
9270;SDS011;4673;53.458;9.940;2024-01-16T06:51:02;3.60;;;3.60;;
9270;SDS011;4673;53.458;9.940;2024-01-16T06:53:27;3.13;;;3.13;;
9270;SDS011;4673;53.458;9.940;2024-01-16T06:55:53;3.53;;;3.53;;
9270;SDS011;4673;53.458;9.940;2024-01-16T06:58:19;3.47;;;3.47;;
9270;SDS011;4673;53.458;9.940;2024-01-16T07:00:44;3.80;;;3.80;;
9270;SDS011;4673;53.458;9.940;2024-01-16T07:03:11;4.90;;;4.90;;
9270;SDS011;4673;53.458;9.940;2024-01-16T07:05:37;5.17;;;5.17;;
9270;SDS011;4673;53.458;9.940;2024-01-16T07:08:05;5.03;;;5.03;;
9270;SDS011;4673;53.458;9.940;2024-01-16T07:10:31;6.67;;;6.67;;
9270;SDS011;4673;53.458;9.940;2024-01-16T07:12:57;6.07;;;6.07;;
9270;SDS011;4673;53.458;9.940;2024-01-16T07:15:23;5.90;;;5.90;;
9270;SDS011;4673;53.458;9.940;2024-01-16T07:17:48;5.97;;;5.97;;
9270;SDS011;4673;53.458;9.940;2024-01-16T07:20:14;7.40;;;7.30;;
9270;SDS011;4673;53.458;9.940;2024-01-16T07:22:40;6.50;;;6.50;;
9270;SDS011;4673;53.458;9.940;2024-01-16T07:25:06;6.70;;;6.70;;
9270;SDS011;4673;53.458;9.940;2024-01-16T07:27:32;6.63;;;6.63;;
9270;SDS011;4673;53.458;9.940;2024-01-16T07:29:57;7.10;;;7.10;;
9270;SDS011;4673;53.458;9.940;2024-01-16T07:32:23;8.03;;;8.00;;
9270;SDS011;4673;53.458;9.940;2024-01-16T07:34:49;8.07;;;8.00;;
9270;SDS011;4673;53.458;9.940;2024-01-16T07:37:16;7.13;;;7.13;;
9270;SDS011;4673;53.458;9.940;2024-01-16T07:39:42;7.17;;;7.17;;
9270;SDS011;4673;53.458;9.940;2024-01-16T07:42:08;6.70;;;6.70;;
9270;SDS011;4673;53.458;9.940;2024-01-16T07:44:34;6.13;;;6.13;;
9270;SDS011;4673;53.458;9.940;2024-01-16T07:47:00;5.80;;;5.80;;
9270;SDS011;4673;53.458;9.940;2024-01-16T07:49:26;6.53;;;6.53;;
9270;SDS011;4673;53.458;9.940;2024-01-16T07:51:51;7.10;;;7.10;;
9270;SDS011;4673;53.458;9.940;2024-01-16T07:54:17;7.00;;;7.00;;
9270;SDS011;4673;53.458;9.940;2024-01-16T07:56:43;7.13;;;7.13;;
9270;SDS011;4673;53.458;9.940;2024-01-16T07:59:08;7.27;;;7.27;;
9270;SDS011;4673;53.458;9.940;2024-01-16T08:01:34;8.30;;;8.30;;
9270;SDS011;4673;53.458;9.940;2024-01-16T08:03:59;6.80;;;6.80;;
9270;SDS011;4673;53.458;9.940;2024-01-16T08:06:26;7.27;;;7.27;;
9270;SDS011;4673;53.458;9.940;2024-01-16T08:08:51;8.00;;;8.00;;
9270;SDS011;4673;53.458;9.940;2024-01-16T08:11:18;8.00;;;8.00;;
9270;SDS011;4673;53.458;9.940;2024-01-16T08:13:44;7.43;;;7.43;;
9270;SDS011;4673;53.458;9.940;2024-01-16T08:16:09;6.73;;;6.73;;
9270;SDS011;4673;53.458;9.940;2024-01-16T08:18:35;6.80;;;6.80;;
9270;SDS011;4673;53.458;9.940;2024-01-16T08:21:01;7.13;;;7.13;;
9270;SDS011;4673;53.458;9.940;2024-01-16T08:23:27;7.90;;;7.90;;
9270;SDS011;4673;53.458;9.940;2024-01-16T08:25:52;7.13;;;7.13;;
9270;SDS011;4673;53.458;9.940;2024-01-16T08:28:18;7.17;;;7.17;;
9270;SDS011;4673;53.458;9.940;2024-01-16T08:30:44;8.13;;;8.13;;
9270;SDS011;4673;53.458;9.940;2024-01-16T08:33:10;6.97;;;6.97;;
9270;SDS011;4673;53.458;9.940;2024-01-16T08:35:36;8.07;;;8.07;;
9270;SDS011;4673;53.458;9.940;2024-01-16T08:38:02;7.53;;;7.53;;
9270;SDS011;4673;53.458;9.940;2024-01-16T08:40:28;9.43;;;9.43;;
9270;SDS011;4673;53.458;9.940;2024-01-16T08:42:54;9.60;;;9.60;;
9270;SDS011;4673;53.458;9.940;2024-01-16T08:45:22;8.60;;;8.60;;
9270;SDS011;4673;53.458;9.940;2024-01-16T08:47:48;9.63;;;9.63;;
9270;SDS011;4673;53.458;9.940;2024-01-16T08:50:14;8.97;;;8.97;;
9270;SDS011;4673;53.458;9.940;2024-01-16T08:52:41;10.37;;;10.27;;
9270;SDS011;4673;53.458;9.940;2024-01-16T08:55:07;9.73;;;9.73;;
9270;SDS011;4673;53.458;9.940;2024-01-16T08:57:34;8.90;;;8.90;;
9270;SDS011;4673;53.458;9.940;2024-01-16T09:00:00;9.70;;;9.70;;
9270;SDS011;4673;53.458;9.940;2024-01-16T09:02:26;9.53;;;9.53;;
9270;SDS011;4673;53.458;9.940;2024-01-16T09:04:54;8.83;;;8.83;;
9270;SDS011;4673;53.458;9.940;2024-01-16T09:07:20;8.60;;;8.60;;
9270;SDS011;4673;53.458;9.940;2024-01-16T09:09:45;8.87;;;8.87;;
9270;SDS011;4673;53.458;9.940;2024-01-16T09:12:11;8.90;;;8.90;;
9270;SDS011;4673;53.458;9.940;2024-01-16T09:14:37;9.20;;;9.13;;
9270;SDS011;4673;53.458;9.940;2024-01-16T09:17:03;7.80;;;7.80;;
9270;SDS011;4673;53.458;9.940;2024-01-16T09:19:29;6.97;;;6.97;;
9270;SDS011;4673;53.458;9.940;2024-01-16T09:21:54;7.10;;;7.10;;
9270;SDS011;4673;53.458;9.940;2024-01-16T09:24:21;7.43;;;7.43;;
9270;SDS011;4673;53.458;9.940;2024-01-16T09:26:46;6.23;;;6.23;;
9270;SDS011;4673;53.458;9.940;2024-01-16T09:29:12;5.57;;;5.57;;
9270;SDS011;4673;53.458;9.940;2024-01-16T09:31:39;4.20;;;4.20;;
9270;SDS011;4673;53.458;9.940;2024-01-16T09:34:05;7.03;;;7.03;;
9270;SDS011;4673;53.458;9.940;2024-01-16T09:36:31;5.13;;;5.13;;
9270;SDS011;4673;53.458;9.940;2024-01-16T09:38:57;4.77;;;4.77;;
9270;SDS011;4673;53.458;9.940;2024-01-16T09:41:23;4.43;;;4.43;;
9270;SDS011;4673;53.458;9.940;2024-01-16T09:43:49;4.17;;;4.17;;
9270;SDS011;4673;53.458;9.940;2024-01-16T09:46:16;4.07;;;4.07;;
9270;SDS011;4673;53.458;9.940;2024-01-16T09:48:44;3.73;;;3.73;;
9270;SDS011;4673;53.458;9.940;2024-01-16T09:51:12;3.30;;;3.30;;
9270;SDS011;4673;53.458;9.940;2024-01-16T09:53:42;3.10;;;3.10;;
9270;SDS011;4673;53.458;9.940;2024-01-16T09:56:09;2.70;;;2.70;;
9270;SDS011;4673;53.458;9.940;2024-01-16T09:58:43;2.73;;;2.73;;
9270;SDS011;4673;53.458;9.940;2024-01-16T10:01:09;2.60;;;2.60;;
9270;SDS011;4673;53.458;9.940;2024-01-16T10:03:36;2.70;;;2.70;;
9270;SDS011;4673;53.458;9.940;2024-01-16T10:06:03;2.57;;;2.57;;
9270;SDS011;4673;53.458;9.940;2024-01-16T10:08:31;2.43;;;2.43;;
9270;SDS011;4673;53.458;9.940;2024-01-16T10:10:57;2.93;;;2.93;;
9270;SDS011;4673;53.458;9.940;2024-01-16T10:13:23;3.30;;;3.30;;
9270;SDS011;4673;53.458;9.940;2024-01-16T10:15:49;2.73;;;2.73;;
9270;SDS011;4673;53.458;9.940;2024-01-16T10:18:24;2.57;;;2.57;;
9270;SDS011;4673;53.458;9.940;2024-01-16T10:20:57;2.40;;;2.40;;
9270;SDS011;4673;53.458;9.940;2024-01-16T10:23:26;3.00;;;3.00;;
9270;SDS011;4673;53.458;9.940;2024-01-16T10:26:06;2.53;;;2.53;;
9270;SDS011;4673;53.458;9.940;2024-01-16T10:28:33;2.63;;;2.63;;
9270;SDS011;4673;53.458;9.940;2024-01-16T10:31:05;2.53;;;2.53;;
9270;SDS011;4673;53.458;9.940;2024-01-16T10:33:34;2.33;;;2.33;;
9270;SDS011;4673;53.458;9.940;2024-01-16T10:36:11;2.00;;;2.00;;
9270;SDS011;4673;53.458;9.940;2024-01-16T10:38:39;2.53;;;2.53;;
9270;SDS011;4673;53.458;9.940;2024-01-16T10:41:08;1.97;;;1.97;;
9270;SDS011;4673;53.458;9.940;2024-01-16T10:43:35;2.03;;;2.03;;
9270;SDS011;4673;53.458;9.940;2024-01-16T10:48:38;2.23;;;2.23;;
9270;SDS011;4673;53.458;9.940;2024-01-16T10:51:09;2.70;;;2.70;;
9270;SDS011;4673;53.458;9.940;2024-01-16T10:53:44;2.20;;;2.20;;
9270;SDS011;4673;53.458;9.940;2024-01-16T10:56:11;2.33;;;2.33;;
9270;SDS011;4673;53.458;9.940;2024-01-16T10:58:40;1.97;;;1.97;;
9270;SDS011;4673;53.458;9.940;2024-01-16T11:01:09;1.97;;;1.97;;
9270;SDS011;4673;53.458;9.940;2024-01-16T11:03:43;2.50;;;2.50;;
9270;SDS011;4673;53.458;9.940;2024-01-16T11:06:15;2.77;;;2.77;;
9270;SDS011;4673;53.458;9.940;2024-01-16T11:08:42;2.33;;;2.33;;
9270;SDS011;4673;53.458;9.940;2024-01-16T11:11:10;1.93;;;1.93;;
9270;SDS011;4673;53.458;9.940;2024-01-16T11:13:38;2.30;;;2.30;;
9270;SDS011;4673;53.458;9.940;2024-01-16T11:16:06;2.60;;;2.60;;
9270;SDS011;4673;53.458;9.940;2024-01-16T11:18:35;2.47;;;2.47;;
9270;SDS011;4673;53.458;9.940;2024-01-16T11:21:01;2.90;;;2.90;;
9270;SDS011;4673;53.458;9.940;2024-01-16T11:23:30;2.87;;;2.87;;
9270;SDS011;4673;53.458;9.940;2024-01-16T11:25:56;1.97;;;1.97;;
9270;SDS011;4673;53.458;9.940;2024-01-16T11:28:26;2.40;;;2.40;;
9270;SDS011;4673;53.458;9.940;2024-01-16T11:30:54;2.37;;;2.37;;
9270;SDS011;4673;53.458;9.940;2024-01-16T11:35:58;2.50;;;2.50;;
9270;SDS011;4673;53.458;9.940;2024-01-16T11:38:25;3.60;;;3.60;;
9270;SDS011;4673;53.458;9.940;2024-01-16T11:40:54;2.30;;;2.30;;
9270;SDS011;4673;53.458;9.940;2024-01-16T11:45:59;2.10;;;2.10;;
9270;SDS011;4673;53.458;9.940;2024-01-16T11:48:26;2.43;;;2.43;;
9270;SDS011;4673;53.458;9.940;2024-01-16T11:50:52;3.13;;;3.13;;
9270;SDS011;4673;53.458;9.940;2024-01-16T11:53:37;2.53;;;2.53;;
9270;SDS011;4673;53.458;9.940;2024-01-16T12:01:43;2.87;;;2.87;;
9270;SDS011;4673;53.458;9.940;2024-01-16T12:04:10;2.20;;;2.20;;
9270;SDS011;4673;53.458;9.940;2024-01-16T12:06:37;2.27;;;2.27;;
9270;SDS011;4673;53.458;9.940;2024-01-16T12:11:38;3.03;;;3.03;;
9270;SDS011;4673;53.458;9.940;2024-01-16T12:14:04;2.87;;;2.87;;
9270;SDS011;4673;53.458;9.940;2024-01-16T12:16:30;2.70;;;2.70;;
9270;SDS011;4673;53.458;9.940;2024-01-16T12:19:08;2.90;;;2.90;;
9270;SDS011;4673;53.458;9.940;2024-01-16T12:21:35;2.93;;;2.93;;
9270;SDS011;4673;53.458;9.940;2024-01-16T12:24:05;2.43;;;2.43;;
9270;SDS011;4673;53.458;9.940;2024-01-16T12:26:31;3.03;;;3.03;;
9270;SDS011;4673;53.458;9.940;2024-01-16T12:28:57;2.20;;;2.20;;
9270;SDS011;4673;53.458;9.940;2024-01-16T12:31:23;2.60;;;2.60;;
9270;SDS011;4673;53.458;9.940;2024-01-16T12:33:50;2.50;;;2.50;;
9270;SDS011;4673;53.458;9.940;2024-01-16T12:36:16;2.60;;;2.60;;
9270;SDS011;4673;53.458;9.940;2024-01-16T12:38:42;2.63;;;2.63;;
9270;SDS011;4673;53.458;9.940;2024-01-16T12:41:08;2.33;;;2.33;;
9270;SDS011;4673;53.458;9.940;2024-01-16T12:43:36;2.47;;;2.47;;
9270;SDS011;4673;53.458;9.940;2024-01-16T12:46:02;2.87;;;2.87;;
9270;SDS011;4673;53.458;9.940;2024-01-16T12:48:28;2.07;;;2.07;;
9270;SDS011;4673;53.458;9.940;2024-01-16T12:51:03;2.70;;;2.70;;
9270;SDS011;4673;53.458;9.940;2024-01-16T12:53:31;2.23;;;2.23;;
9270;SDS011;4673;53.458;9.940;2024-01-16T12:55:59;3.00;;;3.00;;
9270;SDS011;4673;53.458;9.940;2024-01-16T12:58:28;2.23;;;2.23;;
9270;SDS011;4673;53.458;9.940;2024-01-16T13:01:22;2.67;;;2.67;;
9270;SDS011;4673;53.458;9.940;2024-01-16T13:03:49;2.90;;;2.90;;
9270;SDS011;4673;53.458;9.940;2024-01-16T13:06:19;2.43;;;2.43;;
9270;SDS011;4673;53.458;9.940;2024-01-16T13:08:49;2.30;;;2.30;;
9270;SDS011;4673;53.458;9.940;2024-01-16T13:11:16;2.40;;;2.40;;
9270;SDS011;4673;53.458;9.940;2024-01-16T13:13:48;2.50;;;2.50;;
9270;SDS011;4673;53.458;9.940;2024-01-16T13:16:14;2.50;;;2.50;;
9270;SDS011;4673;53.458;9.940;2024-01-16T13:18:41;2.60;;;2.60;;
9270;SDS011;4673;53.458;9.940;2024-01-16T13:21:07;2.53;;;2.53;;
9270;SDS011;4673;53.458;9.940;2024-01-16T13:23:33;3.00;;;3.00;;
9270;SDS011;4673;53.458;9.940;2024-01-16T13:26:00;3.00;;;3.00;;
9270;SDS011;4673;53.458;9.940;2024-01-16T13:28:29;3.17;;;3.17;;
9270;SDS011;4673;53.458;9.940;2024-01-16T13:30:55;3.70;;;3.70;;
9270;SDS011;4673;53.458;9.940;2024-01-16T13:33:24;4.40;;;4.40;;
9270;SDS011;4673;53.458;9.940;2024-01-16T13:35:53;3.90;;;3.90;;
9270;SDS011;4673;53.458;9.940;2024-01-16T13:38:19;4.20;;;4.20;;
9270;SDS011;4673;53.458;9.940;2024-01-16T13:40:45;3.83;;;3.83;;
9270;SDS011;4673;53.458;9.940;2024-01-16T13:43:11;3.67;;;3.67;;
9270;SDS011;4673;53.458;9.940;2024-01-16T13:45:37;3.40;;;3.40;;
9270;SDS011;4673;53.458;9.940;2024-01-16T13:48:04;3.47;;;3.47;;
9270;SDS011;4673;53.458;9.940;2024-01-16T13:50:31;3.33;;;3.33;;
9270;SDS011;4673;53.458;9.940;2024-01-16T13:52:58;2.80;;;2.80;;
9270;SDS011;4673;53.458;9.940;2024-01-16T13:55:24;3.43;;;3.43;;
9270;SDS011;4673;53.458;9.940;2024-01-16T13:57:50;3.83;;;3.83;;
9270;SDS011;4673;53.458;9.940;2024-01-16T14:00:15;4.03;;;4.03;;
9270;SDS011;4673;53.458;9.940;2024-01-16T14:02:42;3.70;;;3.70;;
9270;SDS011;4673;53.458;9.940;2024-01-16T14:05:13;4.00;;;4.00;;
9270;SDS011;4673;53.458;9.940;2024-01-16T14:07:40;4.33;;;4.33;;
9270;SDS011;4673;53.458;9.940;2024-01-16T14:10:09;3.67;;;3.67;;
9270;SDS011;4673;53.458;9.940;2024-01-16T14:12:37;4.07;;;4.07;;
9270;SDS011;4673;53.458;9.940;2024-01-16T14:15:04;3.87;;;3.87;;
9270;SDS011;4673;53.458;9.940;2024-01-16T14:17:34;4.37;;;4.37;;
9270;SDS011;4673;53.458;9.940;2024-01-16T14:20:00;3.73;;;3.73;;
9270;SDS011;4673;53.458;9.940;2024-01-16T14:22:26;3.10;;;3.10;;
9270;SDS011;4673;53.458;9.940;2024-01-16T14:24:52;3.53;;;3.53;;
9270;SDS011;4673;53.458;9.940;2024-01-16T14:27:18;3.63;;;3.63;;
9270;SDS011;4673;53.458;9.940;2024-01-16T14:29:44;3.77;;;3.77;;
9270;SDS011;4673;53.458;9.940;2024-01-16T14:32:09;3.37;;;3.37;;
9270;SDS011;4673;53.458;9.940;2024-01-16T14:34:35;3.40;;;3.40;;
9270;SDS011;4673;53.458;9.940;2024-01-16T14:37:01;2.73;;;2.73;;
9270;SDS011;4673;53.458;9.940;2024-01-16T14:39:27;3.47;;;3.47;;
9270;SDS011;4673;53.458;9.940;2024-01-16T14:41:55;3.07;;;3.07;;
9270;SDS011;4673;53.458;9.940;2024-01-16T14:44:24;3.30;;;3.30;;
9270;SDS011;4673;53.458;9.940;2024-01-16T14:46:50;3.70;;;3.70;;
9270;SDS011;4673;53.458;9.940;2024-01-16T14:49:19;4.23;;;4.23;;
9270;SDS011;4673;53.458;9.940;2024-01-16T14:51:46;3.87;;;3.87;;
9270;SDS011;4673;53.458;9.940;2024-01-16T14:54:11;4.40;;;4.40;;
9270;SDS011;4673;53.458;9.940;2024-01-16T14:56:37;3.20;;;3.20;;
9270;SDS011;4673;53.458;9.940;2024-01-16T14:59:03;4.40;;;4.40;;
9270;SDS011;4673;53.458;9.940;2024-01-16T15:01:29;3.10;;;3.10;;
9270;SDS011;4673;53.458;9.940;2024-01-16T15:03:55;4.33;;;4.33;;
9270;SDS011;4673;53.458;9.940;2024-01-16T15:06:21;3.83;;;3.83;;
9270;SDS011;4673;53.458;9.940;2024-01-16T15:08:47;4.60;;;4.60;;
9270;SDS011;4673;53.458;9.940;2024-01-16T15:11:13;3.63;;;3.63;;
9270;SDS011;4673;53.458;9.940;2024-01-16T15:13:39;4.57;;;4.57;;
9270;SDS011;4673;53.458;9.940;2024-01-16T15:16:05;4.00;;;4.00;;
9270;SDS011;4673;53.458;9.940;2024-01-16T15:18:31;5.70;;;5.70;;
9270;SDS011;4673;53.458;9.940;2024-01-16T15:20:57;3.97;;;3.97;;
9270;SDS011;4673;53.458;9.940;2024-01-16T15:23:23;4.60;;;4.60;;
9270;SDS011;4673;53.458;9.940;2024-01-16T15:25:50;4.03;;;4.03;;
9270;SDS011;4673;53.458;9.940;2024-01-16T15:28:15;4.30;;;4.30;;